CDT,Max TemperatureF,Mean TemperatureF,Min TemperatureF,Max Dew PointF,MeanDew PointF,Min DewpointF,Max Humidity, Mean Humidity, Min Humidity, Max Sea Level PressureIn, Mean Sea Level PressureIn, Min Sea Level PressureIn, Max VisibilityMiles, Mean VisibilityMiles, Min VisibilityMiles, Max Wind SpeedMPH, Mean Wind SpeedMPH, Max Gust SpeedMPH,PrecipitationIn, CloudCover, Events, WindDirDegrees
2013-8-1,80,70,60,63,57,51,96,66,37,30.03,30.00,29.96,10,8,2,21,7,24,0.00,1,,298
2013-8-2,84,75,66,71,65,58,91,75,55,29.97,29.91,29.88,10,9,1,20,8,25,0.41,5,Rain-Thunderstorm,261
2013-8-3,79,70,61,64,57,51,87,64,38,30.14,30.06,29.98,10,10,10,12,5,,0.17,2,,4
2013-8-4,77,66,56,58,54,49,89,62,38,30.20,30.15,30.11,10,10,10,14,4,,0.00,1,,31
2013-8-5,73,66,59,65,60,55,93,80,69,30.12,30.00,29.88,10,10,3,17,6,21,0.12,5,Rain,160
2013-8-6,85,74,65,73,69,64,96,82,61,29.91,29.87,29.83,10,7,1,12,6,,0.00,4,,208
2013-8-7,86,77,68,74,69,64,95,79,51,29.96,29.86,29.82,10,8,3,13,6,,0.00,2,Rain-Thunderstorm,268
2013-8-8,79,71,64,64,62,56,92,74,54,30.02,29.99,29.96,10,9,5,14,7,,0.00,3,,60
2013-8-9,81,70,59,68,61,56,90,71,53,30.07,30.02,30.00,10,10,10,9,4,,0.00,1,,283
2013-8-10,80,68,59,65,58,54,88,68,44,30.15,30.12,30.07,10,10,10,13,6,,0.00,1,,326
2013-8-11,82,69,56,65,59,52,88,68,48,30.15,30.11,30.05,10,10,10,12,2,,0.00,1,,229
2013-8-12,81,73,65,69,64,61,88,71,59,30.04,29.96,29.89,10,10,10,13,8,,0.00,1,,260
2013-8-13,72,64,56,60,52,44,90,66,37,30.16,30.08,29.96,10,10,10,14,8,21,0.00,1,,15
2013-8-14,73,60,49,53,49,46,90,65,40,30.24,30.19,30.15,10,10,10,9,2,,0.00,1,,26
2013-8-15,75,65,55,56,53,50,86,66,45,30.19,30.16,30.11,10,10,10,8,2,,0.00,1,,234
2013-8-16,80,67,54,58,54,51,89,64,38,30.19,30.16,30.14,10,10,10,9,4,,0.00,1,,27
2013-8-17,81,67,54,58,55,51,91,64,39,30.25,30.20,30.16,10,10,10,10,4,,0.00,2,,91
2013-8-18,81,67,54,62,55,51,92,65,36,30.22,30.16,30.11,10,9,5,8,4,,0.00,0,,79
2013-8-19,83,70,58,66,61,54,87,69,47,30.14,30.10,30.05,10,10,10,10,2,,0.00,1,,209
2013-8-20,85,74,64,66,63,61,88,68,46,30.13,30.08,30.04,10,10,5,14,7,23,0.00,0,,193
2013-8-21,89,78,67,67,65,63,87,67,42,30.10,30.06,30.00,10,10,7,16,8,21,0.00,2,Thunderstorm,211
2013-8-22,76,72,66,69,67,64,95,86,73,30.18,30.08,30.02,10,8,0,15,7,23,3.08,5,Rain-Thunderstorm,132
2013-8-23,81,72,62,67,61,55,97,75,45,30.18,30.14,30.11,10,6,0,12,4,16,0.00,3,Fog,74
2013-8-24,84,71,58,68,62,55,91,71,52,30.26,30.21,30.17,10,10,10,12,6,10,0.00,1,,129
2013-8-25,86,76,65,70,65,59,81,69,53,30.27,30.21,30.16,10,10,10,13,8,,0.00,0,,197
2013-8-26,89,77,65,73,68,61,89,74,54,30.18,30.11,30.02,10,10,10,13,7,,0.00,0,,219
2013-8-27,92,82,73,74,71,65,87,69,53,30.03,29.96,29.89,10,10,10,15,9,24,0.00,0,,228
2013-8-28,88,80,72,77,70,64,84,72,58,30.04,29.96,29.88,10,10,10,14,9,21,0.00,2,,341
2013-8-29,84,76,68,71,69,66,95,81,60,30.10,30.04,29.99,10,7,0,8,5,,0.00,4,Fog,128
2013-8-30,94,81,68,76,70,66,91,74,49,29.99,29.89,29.78,10,9,5,21,4,30,0.05,1,Rain-Thunderstorm,199
2013-8-31,81,75,69,72,69,66,94,84,70,29.85,29.82,29.78,10,8,3,12,6,16,0.00,6,Rain-Thunderstorm,72